Time;durP1;ratioP1;P1;durP2;ratioP2;P2;SDS_P1;SDS_P2;PMS_P1;PMS_P2;Temp;Humidity;BMP_temperature;BMP_pressure;BME280_temperature;BME280_humidity;BME280_pressure;Samples;Min_cycle;Max_cycle;Signal;HPM_P1;HPM_P2
2022/07/30 00:02:04;;;;;;;1999.90;999.90;;;13.80;99.90;;;;;;5094013;27;20619;-77
2022/07/30 00:04:31;;;;;;;1999.90;999.90;;;13.70;99.90;;;;;;5118343;27;20043;-77
2022/07/30 00:06:57;;;;;;;1999.90;999.90;;;13.70;99.90;;;;;;5128987;27;20494;-77
2022/07/30 00:09:23;;;;;;;1999.90;999.90;;;13.60;99.90;;;;;;5115825;27;20148;-77
2022/07/30 00:11:49;;;;;;;1999.90;999.90;;;13.60;99.90;;;;;;5117936;28;20031;-77
2022/07/30 00:14:14;;;;;;;1999.90;999.90;;;13.60;99.90;;;;;;5126035;27;20043;-77
2022/07/30 00:16:40;;;;;;;1999.90;999.90;;;13.50;99.90;;;;;;5110731;28;20042;-77
2022/07/30 00:19:06;;;;;;;1999.90;999.90;;;13.50;99.90;;;;;;5129395;27;20119;-78
2022/07/30 00:21:32;;;;;;;1999.90;999.90;;;13.50;99.90;;;;;;5114874;27;20043;-78
2022/07/30 00:23:57;;;;;;;1999.90;999.90;;;13.40;99.90;;;;;;5129925;27;20035;-77
2022/07/30 00:26:23;;;;;;;1999.90;999.90;;;13.40;99.90;;;;;;5124577;27;20067;-77
2022/07/30 00:28:49;;;;;;;1999.90;999.90;;;13.30;99.90;;;;;;5128801;27;20035;-77
2022/07/30 00:31:14;;;;;;;1999.90;999.90;;;13.30;99.90;;;;;;5126270;27;20064;-77
2022/07/30 00:33:40;;;;;;;1999.90;999.90;;;13.20;99.90;;;;;;5129338;27;20127;-77
2022/07/30 00:36:06;;;;;;;1999.90;999.90;;;13.10;99.90;;;;;;5099388;28;20054;-77
2022/07/30 00:38:31;;;;;;;1999.90;999.90;;;13.10;99.90;;;;;;5127211;27;20050;-77
2022/07/30 00:40:57;;;;;;;1999.90;999.90;;;13.00;99.90;;;;;;5129301;27;20119;-77
2022/07/30 00:43:23;;;;;;;1999.90;999.90;;;13.00;99.90;;;;;;5106110;27;20046;-77
2022/07/30 00:45:48;;;;;;;1999.90;999.90;;;12.90;99.90;;;;;;5128943;27;20039;-77
2022/07/30 00:48:14;;;;;;;1999.90;999.90;;;12.90;99.90;;;;;;5128063;27;20047;-77
2022/07/30 00:50:40;;;;;;;1999.90;999.90;;;12.90;99.90;;;;;;5111274;27;20028;-77
2022/07/30 00:53:06;;;;;;;1999.90;999.90;;;12.90;99.90;;;;;;5124828;27;20062;-77
2022/07/30 00:55:33;;;;;;;1999.90;999.90;;;12.90;99.90;;;;;;5133109;27;20039;-77
2022/07/30 00:57:59;;;;;;;1999.90;999.90;;;12.90;99.90;;;;;;5132193;27;20426;-76
2022/07/30 01:00:25;;;;;;;1999.90;999.90;;;12.90;99.90;;;;;;5119166;27;20040;-75
2022/07/30 01:02:51;;;;;;;1999.90;999.90;;;12.90;99.90;;;;;;5131683;27;20137;-76
2022/07/30 01:05:17;;;;;;;1999.90;999.90;;;12.80;99.90;;;;;;5127464;27;20550;-76
2022/07/30 01:07:43;;;;;;;1999.90;999.90;;;12.70;99.90;;;;;;5132981;27;20532;-75
2022/07/30 01:10:11;;;;;;;1999.90;999.90;;;12.80;99.90;;;;;;5101276;28;20047;-75
2022/07/30 01:12:37;;;;;;;1999.90;999.90;;;12.80;99.90;;;;;;5127668;27;20039;-75
2022/07/30 01:15:05;;;;;;;1999.90;999.90;;;12.70;99.90;;;;;;5133000;27;20043;-75
2022/07/30 01:17:32;;;;;;;1999.90;999.90;;;12.70;99.90;;;;;;5131653;27;20181;-75
2022/07/30 01:20:14;;;;;;;1999.90;999.90;;;12.60;99.90;;;;;;5127239;27;20042;-75
2022/07/30 01:23:13;;;;;;;1999.90;999.90;;;12.60;99.90;;;;;;5124411;27;20048;-75
2022/07/30 01:26:04;;;;;;;1999.90;999.90;;;12.60;99.90;;;;;;5122436;27;20043;-75
2022/07/30 01:28:35;;;;;;;1999.90;999.90;;;12.50;99.90;;;;;;5124849;27;20050;-75
2022/07/30 01:31:02;;;;;;;1999.90;999.90;;;12.50;99.90;;;;;;5123557;27;20549;-75
2022/07/30 01:33:30;;;;;;;1999.90;999.90;;;12.50;99.90;;;;;;5132647;27;20043;-75
2022/07/30 01:35:56;;;;;;;1999.90;999.90;;;12.50;99.90;;;;;;5110124;27;20063;-75
2022/07/30 01:38:23;;;;;;;1999.90;999.90;;;12.40;99.90;;;;;;5100290;27;20482;-75
2022/07/30 01:40:51;;;;;;;1999.90;999.90;;;12.40;99.90;;;;;;5132207;27;20403;-75
2022/07/30 01:43:20;;;;;;;1999.90;999.90;;;12.30;99.90;;;;;;5111064;27;20046;-76
2022/07/30 01:45:47;;;;;;;1999.90;999.90;;;12.20;99.90;;;;;;5101231;27;20482;-75
2022/07/30 01:48:15;;;;;;;1999.90;999.90;;;12.20;99.90;;;;;;5131791;27;20071;-75
2022/07/30 01:50:45;;;;;;;1999.90;999.90;;;12.10;99.90;;;;;;5116820;27;20046;-76
2022/07/30 01:53:19;;;;;;;1999.90;999.90;;;12.10;99.90;;;;;;5131997;27;20047;-75
2022/07/30 01:55:46;;;;;;;1999.90;999.90;;;12.00;99.90;;;;;;5132294;27;20046;-75
2022/07/30 01:58:15;;;;;;;1999.90;999.90;;;12.00;99.90;;;;;;5130289;27;20047;-75
2022/07/30 02:00:43;;;;;;;1999.90;999.90;;;12.00;99.90;;;;;;5129020;27;20035;-75
2022/07/30 02:03:10;;;;;;;1999.90;999.90;;;12.00;99.90;;;;;;5131898;27;20085;-75
2022/07/30 02:05:37;;;;;;;1999.90;999.90;;;12.00;99.90;;;;;;5125837;27;20081;-76
2022/07/30 02:08:17;;;;;;;1999.90;999.90;;;12.00;99.90;;;;;;5124693;27;20395;-75
2022/07/30 02:10:51;;;;;;;1999.90;999.90;;;12.00;99.90;;;;;;5128948;27;20406;-75
2022/07/30 02:13:21;;;;;;;1999.90;999.90;;;11.90;99.90;;;;;;5121794;27;20425;-76
2022/07/30 02:16:02;;;;;;;1999.90;999.90;;;11.90;99.90;;;;;;5096691;28;20351;-75
2022/07/30 02:18:39;;;;;;;1999.90;999.90;;;11.80;99.90;;;;;;5111121;28;20434;-76
2022/07/30 02:21:07;;;;;;;1999.90;999.90;;;11.80;99.90;;;;;;5126153;27;20113;-75
2022/07/30 02:23:45;;;;;;;1999.90;999.90;;;11.70;99.90;;;;;;5115140;27;20072;-75
2022/07/30 02:26:17;;;;;;;1999.90;999.90;;;11.70;99.90;;;;;;5113199;27;20047;-75
2022/07/30 02:28:46;;;;;;;1999.90;999.90;;;11.70;99.90;;;;;;5131419;27;20125;-75
2022/07/30 02:31:16;;;;;;;1999.90;999.90;;;11.80;99.90;;;;;;5104736;27;20049;-75
2022/07/30 02:33:43;;;;;;;1999.90;999.90;;;11.80;99.90;;;;;;5126788;27;20297;-75
2022/07/30 02:36:10;;;;;;;1999.90;999.90;;;11.80;99.90;;;;;;5131071;27;20057;-76
2022/07/30 02:38:39;;;;;;;1999.90;999.90;;;11.80;99.90;;;;;;5131432;27;20114;-75
2022/07/30 02:41:08;;;;;;;1999.90;999.90;;;11.70;99.90;;;;;;5126324;27;20031;-76
2022/07/30 02:43:35;;;;;;;1999.90;999.90;;;11.70;99.90;;;;;;5129143;27;20047;-76
2022/07/30 02:46:03;;;;;;;1999.90;999.90;;;11.60;99.90;;;;;;5130554;27;20516;-76
2022/07/30 02:48:30;;;;;;;1999.90;999.90;;;11.50;99.90;;;;;;5098166;28;20055;-76
2022/07/30 02:50:57;;;;;;;1999.90;999.90;;;11.50;99.90;;;;;;5126129;27;20043;-75
2022/07/30 02:53:25;;;;;;;1999.90;999.90;;;11.40;99.90;;;;;;5112788;27;20043;-76
2022/07/30 02:55:54;;;;;;;1999.90;999.90;;;11.40;99.90;;;;;;5118526;27;20039;-75
2022/07/30 02:58:22;;;;;;;1999.90;999.90;;;11.40;99.90;;;;;;5131195;27;20144;-76
2022/07/30 03:00:51;;;;;;;1999.90;999.90;;;11.40;99.90;;;;;;5129228;27;20068;-76
2022/07/30 03:03:17;;;;;;;1999.90;999.90;;;11.30;99.90;;;;;;5130434;27;20114;-76
2022/07/30 03:05:45;;;;;;;1999.90;999.90;;;11.30;99.90;;;;;;5112471;27;20043;-75
2022/07/30 03:08:11;;;;;;;1999.90;999.90;;;11.30;99.90;;;;;;5119134;27;20110;-75
2022/07/30 03:10:39;;;;;;;1999.90;999.90;;;11.20;99.90;;;;;;5129644;27;20043;-75
2022/07/30 03:13:06;;;;;;;1999.90;999.90;;;11.20;99.90;;;;;;5109224;27;20506;-75
2022/07/30 03:15:34;;;;;;;1999.90;999.90;;;11.20;99.90;;;;;;5130411;27;20050;-76
2022/07/30 03:18:01;;;;;;;1999.90;999.90;;;11.10;99.90;;;;;;5130128;27;20062;-76
2022/07/30 03:20:30;;;;;;;1999.90;999.90;;;11.10;99.90;;;;;;5116630;27;20093;-76
2022/07/30 03:22:58;;;;;;;1999.90;999.90;;;11.20;99.90;;;;;;5112658;27;20047;-76
2022/07/30 03:25:26;;;;;;;1999.90;999.90;;;11.20;99.90;;;;;;5123649;27;20398;-76
2022/07/30 03:27:54;;;;;;;1999.90;999.90;;;11.30;99.90;;;;;;5118806;27;20070;-76
2022/07/30 03:30:21;;;;;;;1999.90;999.90;;;11.20;99.90;;;;;;5129755;27;20047;-76
2022/07/30 03:32:47;;;;;;;1999.90;999.90;;;11.20;99.90;;;;;;5124232;27;20075;-76
2022/07/30 03:35:14;;;;;;;1999.90;999.90;;;11.10;99.90;;;;;;5112535;27;20040;-76
2022/07/30 03:37:41;;;;;;;1999.90;999.90;;;11.10;99.90;;;;;;5115464;27;20051;-76
2022/07/30 03:40:07;;;;;;;1999.90;999.90;;;11.00;99.90;;;;;;5108148;27;20481;-76
2022/07/30 03:42:34;;;;;;;1999.90;999.90;;;11.00;99.90;;;;;;5129599;27;20632;-76
2022/07/30 03:45:04;;;;;;;1999.90;999.90;;;11.00;99.90;;;;;;5129185;27;20050;-76
2022/07/30 03:47:33;;;;;;;1999.90;999.90;;;11.00;99.90;;;;;;5110527;27;20096;-75
2022/07/30 03:49:59;;;;;;;1999.90;999.90;;;11.00;99.90;;;;;;5121343;27;20051;-76
2022/07/30 03:52:26;;;;;;;1999.90;999.90;;;11.00;99.90;;;;;;5098799;28;20400;-75
2022/07/30 03:54:52;;;;;;;1999.90;999.90;;;11.00;99.90;;;;;;5123789;27;20110;-76
2022/07/30 03:57:18;;;;;;;1999.90;999.90;;;11.00;99.90;;;;;;5126782;27;20573;-76
2022/07/30 03:59:45;;;;;;;1999.90;999.90;;;11.00;99.90;;;;;;5128451;27;20095;-75
2022/07/30 04:02:11;;;;;;;1999.90;999.90;;;11.10;99.90;;;;;;5111522;27;20054;-76
2022/07/30 04:04:43;;;;;;;1999.90;999.90;;;11.10;99.90;;;;;;5114345;28;20137;-76
2022/07/30 04:07:09;;;;;;;1999.90;999.90;;;11.10;99.90;;;;;;5127774;27;20050;-75
2022/07/30 04:09:34;;;;;;;1999.90;999.90;;;11.10;99.90;;;;;;5129526;27;20043;-76
2022/07/30 04:12:00;;;;;;;1999.90;999.90;;;11.00;99.90;;;;;;5128980;27;20039;-76
2022/07/30 04:14:26;;;;;;;1999.90;999.90;;;11.00;99.90;;;;;;5126999;28;20466;-76
2022/07/30 04:17:08;;;;;;;1999.90;999.90;;;11.00;99.90;;;;;;5110777;28;20454;-75
2022/07/30 04:19:40;;;;;;;1999.90;999.90;;;11.00;99.90;;;;;;5111658;28;20054;-76
2022/07/30 04:22:09;;;;;;;1999.90;999.90;;;11.00;99.90;;;;;;5125009;28;20039;-75
2022/07/30 04:24:36;;;;;;;1999.90;999.90;;;11.10;99.90;;;;;;5118907;27;20390;-76
2022/07/30 04:27:02;;;;;;;1999.90;999.90;;;11.10;99.90;;;;;;5133551;27;20068;-76
2022/07/30 04:29:28;;;;;;;1999.90;999.90;;;11.10;99.90;;;;;;5133415;27;20039;-76
2022/07/30 04:31:54;;;;;;;1999.90;999.90;;;11.10;99.90;;;;;;5106557;27;20047;-76
2022/07/30 04:34:21;;;;;;;1999.90;999.90;;;11.20;99.90;;;;;;5133780;27;20042;-76
2022/07/30 04:36:46;;;;;;;1999.90;999.90;;;11.30;99.90;;;;;;5133546;27;20376;-76
2022/07/30 04:39:12;;;;;;;1999.90;999.90;;;11.30;99.90;;;;;;5131786;27;20044;-75
2022/07/30 04:41:39;;;;;;;1999.90;999.90;;;11.30;99.90;;;;;;5114660;27;20043;-75
2022/07/30 04:44:05;;;;;;;1999.90;999.90;;;11.40;99.90;;;;;;5121515;27;20555;-76
2022/07/30 04:46:31;;;;;;;1999.90;999.90;;;11.40;99.90;;;;;;5104070;27;20057;-75
2022/07/30 04:48:56;;;;;;;1999.90;999.90;;;11.40;99.90;;;;;;5114601;27;20501;-75
2022/07/30 04:51:27;;;;;;;1999.90;999.90;;;11.40;99.90;;;;;;5131220;27;20035;-76
2022/07/30 04:53:54;;;;;;;1999.90;999.90;;;11.50;99.90;;;;;;5127470;27;20045;-76
2022/07/30 04:56:21;;;;;;;1999.90;999.90;;;11.60;99.90;;;;;;5133345;27;20062;-76
2022/07/30 04:58:47;;;;;;;1999.90;999.90;;;11.70;99.90;;;;;;5125735;27;20066;-76
2022/07/30 05:01:22;;;;;;;1999.90;999.90;;;11.80;99.90;;;;;;5114413;27;20050;-75
2022/07/30 05:03:51;;;;;;;1999.90;999.90;;;11.80;99.90;;;;;;5123769;27;20096;-75
2022/07/30 05:06:17;;;;;;;1999.90;999.90;;;11.90;99.90;;;;;;5131324;27;20407;-76
2022/07/30 05:08:43;;;;;;;1999.90;999.90;;;12.00;99.90;;;;;;5114708;27;20068;-76
2022/07/30 05:11:12;;;;;;;1999.90;999.90;;;12.10;99.90;;;;;;5118064;27;20050;-75
2022/07/30 05:13:43;;;;;;;1999.90;999.90;;;12.30;99.90;;;;;;5123281;27;20031;-75
2022/07/30 05:16:09;;;;;;;1999.90;999.90;;;12.40;99.90;;;;;;5132670;27;20050;-75
2022/07/30 05:18:34;;;;;;;1999.90;999.90;;;12.60;99.90;;;;;;5125541;27;20542;-75
2022/07/30 05:21:00;;;;;;;1999.90;999.90;;;12.80;99.90;;;;;;5133078;27;20047;-76
2022/07/30 05:23:26;;;;;;;1999.90;999.90;;;12.90;99.90;;;;;;5127535;27;20126;-75
2022/07/30 05:25:51;;;;;;;1999.90;999.90;;;13.00;99.90;;;;;;5132342;27;20114;-75
2022/07/30 05:28:17;;;;;;;1999.90;999.90;;;13.10;99.90;;;;;;5131164;27;20039;-76
2022/07/30 05:30:42;;;;;;;1999.90;999.90;;;13.30;99.90;;;;;;5130928;27;20066;-76
2022/07/30 05:33:08;;;;;;;1999.90;999.90;;;13.50;99.90;;;;;;5125573;27;20039;-76
2022/07/30 05:35:33;;;;;;;1999.90;999.90;;;13.70;99.90;;;;;;5130093;27;20081;-76
2022/07/30 05:37:59;;;;;;;1999.90;999.90;;;13.80;99.90;;;;;;5121116;27;20432;-76
2022/07/30 05:40:25;;;;;;;1999.90;999.90;;;14.00;99.90;;;;;;5130760;27;20073;-76
2022/07/30 05:42:51;;;;;;;1999.90;999.90;;;14.20;99.90;;;;;;5129622;27;20732;-76
2022/07/30 05:45:18;;;;;;;1999.90;999.90;;;14.40;99.90;;;;;;5125812;27;20228;-76
2022/07/30 05:47:43;;;;;;;1999.90;999.90;;;14.70;99.90;;;;;;5132133;27;20130;-76
2022/07/30 05:50:09;;;;;;;1999.90;999.90;;;14.90;99.90;;;;;;5120249;27;20585;-76
2022/07/30 05:52:34;;;;;;;1999.90;999.90;;;15.20;99.90;;;;;;5131809;27;20070;-76
2022/07/30 05:55:00;;;;;;;1999.90;999.90;;;15.30;99.90;;;;;;5131592;27;20035;-76
2022/07/30 05:57:26;;;;;;;1999.90;999.90;;;15.40;99.90;;;;;;5126078;27;20044;-76
2022/07/30 05:59:51;;;;;;;1999.90;999.90;;;15.60;99.90;;;;;;5131903;27;20118;-75
2022/07/30 06:02:17;;;;;;;1999.90;999.90;;;15.90;99.90;;;;;;5131882;27;20070;-75
2022/07/30 06:04:43;;;;;;;1999.90;999.90;;;16.40;99.90;;;;;;5130611;27;20039;-75
2022/07/30 06:07:08;;;;;;;1999.90;999.90;;;16.60;99.90;;;;;;5121522;27;20036;-75
2022/07/30 06:09:34;;;;;;;1999.90;999.90;;;17.20;99.90;;;;;;5120493;27;20491;-75
2022/07/30 06:11:59;;;;;;;1999.90;999.90;;;17.90;99.90;;;;;;5094554;28;20053;-75
2022/07/30 06:14:25;;;;;;;1999.90;999.90;;;18.10;99.90;;;;;;5095684;27;20039;-76
2022/07/30 06:16:51;;;;;;;1999.90;999.90;;;18.10;99.90;;;;;;5131888;27;20071;-76
2022/07/30 06:19:16;;;;;;;1999.90;999.90;;;18.00;99.90;;;;;;5128618;27;20046;-75
2022/07/30 06:21:42;;;;;;;1999.90;999.90;;;18.00;99.90;;;;;;5129860;27;20586;-76
2022/07/30 06:24:07;;;;;;;1999.90;999.90;;;18.30;99.90;;;;;;5123284;27;20035;-76
2022/07/30 06:26:33;;;;;;;1999.90;999.90;;;18.60;99.90;;;;;;5126275;27;20457;-75
2022/07/30 06:28:59;;;;;;;1999.90;999.90;;;19.00;99.90;;;;;;5131137;27;20082;-74
2022/07/30 06:31:24;;;;;;;1999.90;999.90;;;19.80;99.90;;;;;;5125098;27;20498;-75
2022/07/30 06:33:50;;;;;;;1999.90;999.90;;;20.40;99.90;;;;;;5128226;27;20050;-75
2022/07/30 06:36:16;;;;;;;1999.90;999.90;;;21.20;99.90;;;;;;5111712;27;20050;-75
2022/07/30 06:38:41;;;;;;;1999.90;999.90;;;21.90;99.90;;;;;;5100250;28;20048;-75
2022/07/30 06:41:07;;;;;;;1999.90;999.90;;;22.40;99.90;;;;;;5127507;27;20106;-75
2022/07/30 06:43:33;;;;;;;1999.90;999.90;;;23.00;99.90;;;;;;5107260;28;20066;-75
2022/07/30 06:45:59;;;;;;;1999.90;999.90;;;23.30;99.90;;;;;;5130175;27;20096;-75
2022/07/30 06:48:25;;;;;;;1999.90;999.90;;;23.50;99.90;;;;;;5131111;27;20323;-75
2022/07/30 06:50:51;;;;;;;1999.90;999.90;;;23.50;99.90;;;;;;5131062;27;20496;-76
2022/07/30 06:53:17;;;;;;;1999.90;999.90;;;23.60;99.90;;;;;;5128380;27;20113;-75
2022/07/30 06:55:42;;;;;;;1999.90;999.90;;;23.80;99.90;;;;;;5130660;27;20030;-75
2022/07/30 06:58:08;;;;;;;1999.90;999.90;;;23.90;99.90;;;;;;5130653;27;20037;-75
2022/07/30 07:00:33;;;;;;;1999.90;999.90;;;24.10;99.90;;;;;;5082271;28;20086;-75
2022/07/30 07:02:59;;;;;;;1999.90;999.90;;;24.50;99.90;;;;;;5118845;27;20057;-76
2022/07/30 07:05:27;;;;;;;1999.90;999.90;;;24.90;99.90;;;;;;5103271;27;20862;-75
2022/07/30 07:07:53;;;;;;;1999.90;999.90;;;25.00;99.90;;;;;;5121935;27;20050;-76
2022/07/30 07:10:19;;;;;;;1999.90;999.90;;;25.20;99.90;;;;;;5118219;27;20469;-76
2022/07/30 07:12:45;;;;;;;1999.90;999.90;;;25.20;99.90;;;;;;5114855;27;20039;-76
2022/07/30 07:15:11;;;;;;;1999.90;999.90;;;25.40;99.90;;;;;;5129903;27;20027;-75
2022/07/30 07:17:37;;;;;;;1999.90;999.90;;;25.00;99.90;;;;;;5130462;27;20529;-76
2022/07/30 07:20:03;;;;;;;1999.90;999.90;;;24.40;99.90;;;;;;5128093;27;20084;-76
2022/07/30 07:22:29;;;;;;;1999.90;999.90;;;24.30;99.90;;;;;;5117399;27;20118;-76
2022/07/30 07:24:55;;;;;;;1999.90;999.90;;;24.70;99.90;;;;;;5105108;27;20134;-76
2022/07/30 07:27:20;;;;;;;1999.90;999.90;;;25.20;99.90;;;;;;5109520;27;20043;-76
2022/07/30 07:29:46;;;;;;;1999.90;999.90;;;25.50;99.90;;;;;;5129962;27;20046;-76
2022/07/30 07:32:12;;;;;;;1999.90;999.90;;;25.70;99.90;;;;;;5130095;27;20088;-76
2022/07/30 07:34:37;;;;;;;1999.90;999.90;;;25.30;99.90;;;;;;5109377;27;20070;-76
2022/07/30 07:37:03;;;;;;;1999.90;999.90;;;24.70;99.90;;;;;;5123720;27;20376;-76
2022/07/30 07:39:28;;;;;;;1999.90;999.90;;;24.40;99.90;;;;;;5128661;27;20051;-76
2022/07/30 07:41:54;;;;;;;1999.90;999.90;;;24.00;99.90;;;;;;5126619;27;20042;-76
2022/07/30 07:44:20;;;;;;;1999.90;999.90;;;23.40;99.90;;;;;;5129855;27;20100;-76
2022/07/30 07:46:45;;;;;;;1999.90;999.90;;;23.50;99.90;;;;;;5130321;27;20043;-76
2022/07/30 07:49:11;;;;;;;1999.90;999.90;;;23.40;99.90;;;;;;5118994;27;20042;-76
2022/07/30 07:51:37;;;;;;;1999.90;999.90;;;23.10;99.90;;;;;;5129608;27;20126;-76
2022/07/30 07:54:02;;;;;;;1999.90;999.90;;;22.70;99.90;;;;;;5102877;27;20035;-76
2022/07/30 07:56:28;;;;;;;1999.90;999.90;;;22.50;99.90;;;;;;5108021;27;20039;-75
2022/07/30 07:58:54;;;;;;;1999.90;999.90;;;22.50;99.90;;;;;;5119248;27;20057;-76
2022/07/30 08:01:20;;;;;;;1999.90;999.90;;;22.50;99.90;;;;;;5135350;27;20472;-76
2022/07/30 08:03:46;;;;;;;1999.90;999.90;;;22.50;99.90;;;;;;5128369;27;20102;-76
2022/07/30 08:06:12;;;;;;;1999.90;999.90;;;22.40;99.90;;;;;;5123682;27;20527;-76
2022/07/30 08:08:37;;;;;;;1999.90;999.90;;;22.20;99.90;;;;;;5085195;28;20083;-76
2022/07/30 08:11:04;;;;;;;1999.90;999.90;;;22.20;99.90;;;;;;5123943;27;20074;-76
2022/07/30 08:13:31;;;;;;;1999.90;999.90;;;22.10;99.90;;;;;;5110288;28;20504;-76
2022/07/30 08:15:57;;;;;;;1999.90;999.90;;;21.90;99.90;;;;;;5107552;28;20039;-76
2022/07/30 08:18:23;;;;;;;1999.90;999.90;;;21.80;99.90;;;;;;5108580;28;20082;-76
2022/07/30 08:20:50;;;;;;;1999.90;999.90;;;21.80;99.90;;;;;;5126864;27;20070;-76
2022/07/30 08:23:17;;;;;;;1999.90;999.90;;;22.00;99.90;;;;;;5114859;27;20044;-76
2022/07/30 08:25:43;;;;;;;1999.90;999.90;;;22.20;99.90;;;;;;5125484;27;20456;-76
2022/07/30 08:28:09;;;;;;;1999.90;999.90;;;22.40;99.90;;;;;;5122134;27;20035;-77
2022/07/30 08:30:35;;;;;;;1999.90;999.90;;;22.50;99.90;;;;;;5119040;27;20039;-75
2022/07/30 08:33:01;;;;;;;1999.90;999.90;;;22.80;99.90;;;;;;5128562;27;20043;-76
2022/07/30 08:35:27;;;;;;;1999.90;999.90;;;22.80;99.90;;;;;;5128100;27;20080;-76
2022/07/30 08:37:52;;;;;;;1999.90;999.90;;;22.80;99.90;;;;;;5092750;28;20100;-76
2022/07/30 08:40:19;;;;;;;1999.90;999.90;;;22.90;99.90;;;;;;5129025;27;20055;-76
2022/07/30 08:42:45;;;;;;;1999.90;999.90;;;23.50;99.90;;;;;;5129481;27;20050;-76
2022/07/30 08:45:12;;;;;;;1999.90;999.90;;;24.10;99.90;;;;;;5117024;27;20048;-75
2022/07/30 08:47:40;;;;;;;1999.90;999.90;;;24.60;99.90;;;;;;5103928;28;20070;-76
2022/07/30 08:50:07;;;;;;;1999.90;999.90;;;24.50;99.80;;;;;;5121593;27;20039;-76
2022/07/30 08:52:36;;;;;;;1999.90;999.90;;;24.20;99.90;;;;;;5111065;27;20039;-76
2022/07/30 08:55:04;;;;;;;1999.90;999.90;;;24.70;99.90;;;;;;5110624;28;20096;-77
2022/07/30 08:57:32;;;;;;;1999.90;999.90;;;25.30;99.30;;;;;;5127570;27;20053;-76
2022/07/30 08:59:58;;;;;;;1999.90;999.90;;;25.70;99.20;;;;;;5122123;27;20031;-77
2022/07/30 09:02:24;;;;;;;1999.90;999.90;;;26.00;97.80;;;;;;5115629;27;20075;-76
2022/07/30 09:04:50;;;;;;;1999.90;999.90;;;26.20;97.10;;;;;;5124519;27;20036;-76
2022/07/30 09:07:15;;;;;;;1999.90;999.90;;;26.20;96.90;;;;;;5123229;27;20476;-77
2022/07/30 09:09:41;;;;;;;1999.90;999.90;;;25.80;96.30;;;;;;5113395;27;20467;-77
2022/07/30 09:12:32;;;;;;;1999.90;999.90;;;25.40;96.60;;;;;;5128355;27;20122;-76
2022/07/30 09:15:14;;;;;;;1999.90;999.90;;;25.80;97.50;;;;;;5121405;27;20397;-76
2022/07/30 09:18:02;;;;;;;1999.90;999.90;;;26.40;97.50;;;;;;5117477;27;20048;-76
2022/07/30 09:20:35;;;;;;;1999.90;999.90;;;26.80;95.20;;;;;;5130254;27;20050;-76
2022/07/30 09:23:03;;;;;;;1999.90;999.90;;;26.70;94.70;;;;;;5120392;27;20047;-77
2022/07/30 09:25:33;;;;;;;1999.90;999.90;;;26.60;93.10;;;;;;5117062;27;20474;-76
2022/07/30 09:28:00;;;;;;;1999.90;999.90;;;26.90;94.00;;;;;;5084407;28;20039;-76
2022/07/30 09:30:28;;;;;;;1999.90;999.90;;;27.00;93.50;;;;;;5130450;27;20077;-77
2022/07/30 09:32:55;;;;;;;1999.90;999.90;;;26.40;93.20;;;;;;5114022;27;20043;-76
2022/07/30 09:35:23;;;;;;;1999.90;999.90;;;26.40;93.80;;;;;;5126521;27;20038;-77
2022/07/30 09:37:58;;;;;;;1999.90;999.90;;;26.70;92.20;;;;;;5113972;27;20115;-76
2022/07/30 09:40:24;;;;;;;1999.90;999.90;;;26.40;92.90;;;;;;5131322;27;20469;-76
2022/07/30 09:43:04;;;;;;;1999.90;999.90;;;26.50;92.80;;;;;;5110538;27;20407;-77
2022/07/30 09:45:30;;;;;;;1999.90;999.90;;;26.90;93.10;;;;;;5113352;27;20429;-76
2022/07/30 09:47:56;;;;;;;1999.90;999.90;;;27.40;92.10;;;;;;5112806;27;20076;-76
2022/07/30 09:50:23;;;;;;;1999.90;999.90;;;27.50;92.10;;;;;;5130483;27;20067;-77
2022/07/30 09:52:50;;;;;;;1999.90;999.90;;;27.40;91.70;;;;;;5129035;27;20075;-76
2022/07/30 09:55:32;;;;;;;1999.90;999.90;;;27.30;90.20;;;;;;5128917;27;20403;-76
2022/07/30 09:58:04;;;;;;;1999.90;999.90;;;27.20;90.20;;;;;;5131955;27;20035;-76
2022/07/30 10:00:31;;;;;;;1999.90;999.90;;;27.10;89.30;;;;;;5128981;27;20071;-77
2022/07/30 10:02:59;;;;;;;1999.90;999.90;;;27.30;90.00;;;;;;5112579;27;20042;-77
2022/07/30 10:05:25;;;;;;;1999.90;999.90;;;27.30;86.40;;;;;;5111550;27;20042;-77
2022/07/30 10:07:59;;;;;;;1999.90;999.90;;;27.30;90.20;;;;;;5118764;27;20081;-76
2022/07/30 10:10:29;;;;;;;1999.90;999.90;;;27.50;89.40;;;;;;5123223;27;20035;-76
2022/07/30 10:13:00;;;;;;;1999.90;999.90;;;27.80;88.60;;;;;;5108114;27;20054;-76
2022/07/30 10:15:33;;;;;;;1999.90;999.90;;;27.60;87.90;;;;;;5130624;27;20088;-76
2022/07/30 10:18:01;;;;;;;1999.90;999.90;;;27.50;88.30;;;;;;5131929;27;20118;-76
2022/07/30 10:20:27;;;;;;;1999.90;999.90;;;27.60;88.60;;;;;;5118610;27;20125;-76
2022/07/30 10:22:53;;;;;;;1999.90;999.90;;;27.80;88.60;;;;;;5131709;27;20077;-76
2022/07/30 10:25:21;;;;;;;1999.90;999.90;;;27.80;85.10;;;;;;5120703;27;20039;-76
2022/07/30 10:27:48;;;;;;;1999.90;999.90;;;27.50;84.50;;;;;;5111532;27;20126;-77
2022/07/30 10:30:14;;;;;;;1999.90;999.90;;;27.20;85.70;;;;;;5131577;27;20039;-75
2022/07/30 10:32:40;;;;;;;1999.90;999.90;;;27.00;85.70;;;;;;5128750;27;20122;-76
2022/07/30 10:35:07;;;;;;;1999.90;999.90;;;27.00;85.10;;;;;;5122630;27;20115;-73
2022/07/30 10:37:35;;;;;;;1999.90;999.90;;;27.00;86.70;;;;;;5118531;27;20046;-77
2022/07/30 10:40:09;;;;;;;1999.90;999.90;;;27.00;82.20;;;;;;5127839;27;20062;-75
2022/07/30 10:42:57;;;;;;;1999.90;999.90;;;26.80;84.20;;;;;;5128517;27;20039;-76
2022/07/30 10:45:31;;;;;;;1999.90;999.90;;;26.60;83.50;;;;;;5128794;27;20043;-76
2022/07/30 10:47:58;;;;;;;1999.90;999.90;;;26.20;84.00;;;;;;5129343;27;20078;-75
2022/07/30 10:50:25;;;;;;;1999.90;999.90;;;26.20;83.30;;;;;;5130416;27;20514;-76
2022/07/30 10:52:59;;;;;;;1999.90;999.90;;;26.30;84.00;;;;;;5109775;27;20124;-76
2022/07/30 10:55:27;;;;;;;1999.90;999.90;;;26.30;83.70;;;;;;5128688;27;20110;-75
2022/07/30 10:58:14;;;;;;;1999.90;999.90;;;26.30;84.30;;;;;;5131167;27;20035;-76
2022/07/30 11:00:51;;;;;;;1999.90;999.90;;;26.30;84.00;;;;;;5130615;27;20453;-76
2022/07/30 11:03:30;;;;;;;1999.90;999.90;;;26.20;82.10;;;;;;5119578;27;20059;-76
2022/07/30 11:06:14;;;;;;;1999.90;999.90;;;25.80;84.00;;;;;;5112987;27;20499;-75
2022/07/30 11:08:41;;;;;;;1999.90;999.90;;;26.00;82.80;;;;;;5129785;27;20043;-76
2022/07/30 11:11:22;;;;;;;1999.90;999.90;;;26.30;85.20;;;;;;5124065;27;20125;-76
2022/07/30 11:13:56;;;;;;;1999.90;999.90;;;26.60;83.60;;;;;;5119744;27;20525;-75
2022/07/30 11:16:43;;;;;;;1999.90;999.90;;;26.90;82.40;;;;;;5128798;27;20378;-76
2022/07/30 11:19:18;;;;;;;1999.90;999.90;;;27.00;81.10;;;;;;5129217;27;20035;-75
2022/07/30 11:21:44;;;;;;;1999.90;999.90;;;27.00;81.40;;;;;;5128449;27;20414;-76
2022/07/30 11:24:42;;;;;;;1999.90;999.90;;;26.90;77.00;;;;;;5123058;27;20031;-75
2022/07/30 11:27:08;;;;;;;1999.90;999.90;;;26.60;78.70;;;;;;5119389;27;20092;-75
2022/07/30 11:29:35;;;;;;;1999.90;999.90;;;26.30;78.40;;;;;;5130945;27;20047;-76
2022/07/30 11:32:27;;;;;;;1999.90;999.90;;;26.10;80.60;;;;;;5126623;27;20503;-76
2022/07/30 11:35:13;;;;;;;1999.90;999.90;;;26.10;79.40;;;;;;5110357;27;20133;-75
2022/07/30 11:37:55;;;;;;;1999.90;999.90;;;26.20;78.80;;;;;;5125634;27;20072;-76
2022/07/30 11:40:22;;;;;;;1999.90;999.90;;;26.60;79.70;;;;;;5121456;27;20055;-75
2022/07/30 11:42:48;;;;;;;1999.90;999.90;;;26.90;77.30;;;;;;5110461;27;20046;-76
2022/07/30 11:45:17;;;;;;;1999.90;999.90;;;26.80;75.20;;;;;;5110483;27;20547;-76
2022/07/30 11:47:46;;;;;;;1999.90;999.90;;;26.40;76.30;;;;;;5103712;27;20062;-75
2022/07/30 11:50:19;;;;;;;1999.90;999.90;;;26.30;78.20;;;;;;5129957;27;20049;-75
2022/07/30 11:52:52;;;;;;;1999.90;999.90;;;26.50;76.70;;;;;;5100210;27;20047;-75
2022/07/30 11:55:31;;;;;;;1999.90;999.90;;;26.50;77.80;;;;;;5110718;27;20567;-76
2022/07/30 11:57:58;;;;;;;1999.90;999.90;;;26.50;76.60;;;;;;5127287;27;20035;-75
2022/07/30 12:00:25;;;;;;;1999.90;999.90;;;26.40;75.90;;;;;;5118833;27;20043;-76
2022/07/30 12:02:50;;;;;;;1999.90;999.90;;;26.20;75.30;;;;;;5120481;27;20066;-76
2022/07/30 12:05:24;;;;;;;1999.90;999.90;;;26.30;78.50;;;;;;5126895;27;21040;-75